createdAt,value
2017-08-09T16:09:35.548Z,1.57
2017-08-09T16:12:05.088Z,1.50
2017-08-09T16:14:34.596Z,1.40
2017-08-09T16:17:04.100Z,2.33
2017-08-09T16:19:33.617Z,1.47
2017-08-09T16:22:03.179Z,1.40
2017-08-09T16:24:32.721Z,1.90
2017-08-09T16:27:02.208Z,1.93
2017-08-09T16:29:31.898Z,2.80
2017-08-09T16:32:01.435Z,1.40
2017-08-09T16:34:30.920Z,2.13
2017-08-09T16:37:00.453Z,2.87
2017-08-09T16:39:29.931Z,1.83
2017-08-09T16:41:59.415Z,3.03
2017-08-09T16:44:28.928Z,2.23
2017-08-09T16:46:58.403Z,2.13
2017-08-09T16:49:27.896Z,3.10
2017-08-09T16:51:57.374Z,2.77
2017-08-09T16:54:26.899Z,2.47
2017-08-09T16:56:56.644Z,3.60
2017-08-09T16:59:26.184Z,4.63
2017-08-09T17:01:55.650Z,2.30
2017-08-09T17:04:25.198Z,2.70
2017-08-09T17:06:54.676Z,2.90
2017-08-09T17:09:24.210Z,4.63
2017-08-09T17:11:53.752Z,4.03
2017-08-09T17:14:23.223Z,3.13
2017-08-09T17:16:52.732Z,2.03
2017-08-09T17:19:22.349Z,2.10
2017-08-09T17:21:51.964Z,2.63
2017-08-09T17:24:21.472Z,3.43
2017-08-09T17:26:51.084Z,1.83
2017-08-09T17:29:20.546Z,2.97
2017-08-09T17:31:50.092Z,2.00
2017-08-09T17:34:19.608Z,2.33
2017-08-09T17:36:49.139Z,2.13
2017-08-09T17:39:18.633Z,3.30
2017-08-09T17:41:48.125Z,6.50
2017-08-09T17:44:18.283Z,4.83
2017-08-09T17:46:47.977Z,2.93
2017-08-09T17:49:17.466Z,3.03
2017-08-09T17:51:46.972Z,2.63
2017-08-09T17:54:16.447Z,2.60
2017-08-09T17:56:45.970Z,2.73
2017-08-09T17:59:15.529Z,2.60
2017-08-09T18:01:45.117Z,8.20
2017-08-09T18:04:14.645Z,7.43
2017-08-09T18:06:44.716Z,10.43
2017-08-09T18:09:14.192Z,8.90
2017-08-09T18:11:43.720Z,23.07
2017-08-09T18:14:13.230Z,24.43
2017-08-09T18:16:42.724Z,11.73
2017-08-09T18:19:12.316Z,4.90
2017-08-09T18:21:41.919Z,2.60
2017-08-09T18:24:11.450Z,6.50
2017-08-09T18:26:41.002Z,4.67
2017-08-09T18:29:10.559Z,9.20
2017-08-09T18:31:40.097Z,3.87
2017-08-09T18:34:09.604Z,3.63
2017-08-09T18:36:39.136Z,3.70
2017-08-09T18:39:08.789Z,3.07
2017-08-09T18:41:38.286Z,3.93
2017-08-09T18:44:07.807Z,7.90
2017-08-09T18:46:37.333Z,4.03
2017-08-09T18:49:06.857Z,5.40
2017-08-09T18:51:36.534Z,3.40
2017-08-09T18:54:06.037Z,3.97
2017-08-09T18:56:35.539Z,15.83
2017-08-09T18:59:05.196Z,15.13
2017-08-09T19:01:34.884Z,4.30
2017-08-09T19:04:04.350Z,5.57
2017-08-09T19:06:33.866Z,7.20
2017-08-09T19:09:03.385Z,4.43
2017-08-09T19:11:32.918Z,7.80
2017-08-09T19:14:02.460Z,6.30
2017-08-09T19:16:31.964Z,4.63
2017-08-09T19:19:01.735Z,4.90
2017-08-09T19:21:31.352Z,3.60
2017-08-09T19:24:00.837Z,3.20
2017-08-09T19:26:30.378Z,5.73
2017-08-09T19:28:59.882Z,3.47
2017-08-09T19:31:29.429Z,7.73
2017-08-09T19:33:58.932Z,3.27
2017-08-09T19:36:28.488Z,4.80
2017-08-09T19:38:57.973Z,5.10
2017-08-09T19:41:27.473Z,4.30
2017-08-09T19:43:57.005Z,3.40
2017-08-09T19:46:26.520Z,2.77
2017-08-09T19:48:56.063Z,2.70
2017-08-09T19:51:25.593Z,4.57
2017-08-09T19:53:55.091Z,4.93
2017-08-09T19:56:24.613Z,5.20
2017-08-09T19:58:54.101Z,3.50
2017-08-09T20:01:23.840Z,3.83
2017-08-09T20:03:53.341Z,2.75
2017-08-09T20:06:22.853Z,3.00
2017-08-09T20:08:52.353Z,3.37
2017-08-09T20:11:21.879Z,3.65
2017-08-09T20:13:51.432Z,2.77
2017-08-09T20:16:20.929Z,3.33
2017-08-09T20:18:50.427Z,4.32
2017-08-09T20:21:19.934Z,3.12
2017-08-09T20:23:49.597Z,3.10
2017-08-09T20:26:19.066Z,4.95
2017-08-09T20:28:48.589Z,6.47
2017-08-09T20:31:18.092Z,2.90
2017-08-09T20:33:48.228Z,3.55
2017-08-09T20:36:17.765Z,3.45
2017-08-09T20:38:47.268Z,3.10
2017-08-09T20:41:16.805Z,2.90
2017-08-09T20:43:46.348Z,3.25
2017-08-09T20:46:15.848Z,3.50
2017-08-09T20:48:45.365Z,3.28
2017-08-09T20:51:14.853Z,4.05
2017-08-09T20:53:44.347Z,4.00
2017-08-09T20:56:13.828Z,7.50
2017-08-09T20:58:43.331Z,3.85
2017-08-09T21:01:12.810Z,3.87
2017-08-09T21:03:42.520Z,3.75
2017-08-09T21:06:12.080Z,4.00
2017-08-09T21:08:41.591Z,3.17
2017-08-09T21:11:11.165Z,2.83
2017-08-09T21:13:40.662Z,3.65
2017-08-09T21:16:10.281Z,3.28
